Time;durP1;ratioP1;P1;durP2;ratioP2;P2;SDS_P1;SDS_P2;PMS_P1;PMS_P2;Temp;Humidity;BMP_temperature;BMP_pressure;BME280_temperature;BME280_humidity;BME280_pressure;Samples;Min_cycle;Max_cycle;Signal;HPM_P1;HPM_P2
2021/05/10 00:01:02;;;;;;;1.17;1.00;;;20.60;80.40;;;;;;5018321;28;20489;-81
2021/05/10 00:03:31;;;;;;;1.80;1.10;;;20.50;81.90;;;;;;5019055;28;20464;-80
2021/05/10 00:05:58;;;;;;;1.30;1.20;;;20.50;81.60;;;;;;5018312;28;20463;-78
2021/05/10 00:08:26;;;;;;;1.30;1.20;;;20.50;82.70;;;;;;5017680;28;21034;-81
2021/05/10 00:10:54;;;;;;;1.30;1.20;;;20.40;85.00;;;;;;5017711;28;20538;-78
2021/05/10 00:13:22;;;;;;;1.10;1.00;;;20.40;81.60;;;;;;5016723;28;20555;-78
2021/05/10 00:15:50;;;;;;;1.40;1.10;;;20.40;82.10;;;;;;5019061;28;20467;-79
2021/05/10 00:18:18;;;;;;;1.30;1.00;;;20.40;78.80;;;;;;5048740;28;20815;-79
2021/05/10 00:20:48;;;;;;;0.97;0.97;;;20.50;80.00;;;;;;5015920;28;20487;-78
2021/05/10 00:23:17;;;;;;;1.20;1.10;;;20.50;79.00;;;;;;5019129;28;20535;-80
2021/05/10 00:25:45;;;;;;;1.03;1.03;;;20.40;81.10;;;;;;5012875;28;21296;-79
2021/05/10 00:28:13;;;;;;;3.60;1.23;;;20.40;79.30;;;;;;5017028;28;20931;-80
2021/05/10 00:30:41;;;;;;;1.10;1.00;;;20.40;77.80;;;;;;5018578;28;20467;-77
2021/05/10 00:33:08;;;;;;;1.57;1.20;;;20.40;78.80;;;;;;5014501;28;20457;-76
2021/05/10 00:35:35;;;;;;;1.17;1.10;;;20.40;80.40;;;;;;5017033;28;20441;-81
2021/05/10 00:38:03;;;;;;;2.10;1.03;;;20.30;76.40;;;;;;5017690;28;20491;-78
2021/05/10 00:40:33;;;;;;;1.00;1.00;;;20.30;76.80;;;;;;5018357;28;20480;-78
2021/05/10 00:43:00;;;;;;;1.57;1.10;;;20.30;74.10;;;;;;5016761;28;20476;-77
2021/05/10 00:45:28;;;;;;;2.10;1.00;;;20.30;74.90;;;;;;5012367;28;20468;-78
2021/05/10 00:47:56;;;;;;;1.10;1.00;;;20.20;75.10;;;;;;5013691;28;20498;-79
2021/05/10 00:50:25;;;;;;;2.43;1.10;;;20.20;75.80;;;;;;5021069;28;20482;-78
2021/05/10 00:52:52;;;;;;;1.20;1.10;;;20.10;73.40;;;;;;5019704;28;20886;-78
2021/05/10 00:55:21;;;;;;;1.23;1.10;;;20.10;77.90;;;;;;5022054;28;20483;-79
2021/05/10 00:57:52;;;;;;;1.47;1.37;;;20.00;76.10;;;;;;5017119;28;20533;-79
2021/05/10 01:00:21;;;;;;;1.23;1.13;;;20.00;71.40;;;;;;5021449;28;20479;-79
2021/05/10 01:02:48;;;;;;;1.53;0.97;;;20.00;66.90;;;;;;5019386;28;20487;-79
2021/05/10 01:05:16;;;;;;;1.37;1.27;;;20.10;68.90;;;;;;5019349;28;20460;-80
2021/05/10 01:07:44;;;;;;;1.30;1.20;;;20.10;69.10;;;;;;5019901;28;20563;-79
2021/05/10 01:10:14;;;;;;;2.00;1.23;;;20.20;67.60;;;;;;5022653;28;20484;-78
2021/05/10 01:12:43;;;;;;;1.20;1.10;;;20.10;69.90;;;;;;5049167;28;20457;-79
2021/05/10 01:15:14;;;;;;;1.43;1.10;;;20.10;70.30;;;;;;5021540;28;20479;-79
2021/05/10 01:17:42;;;;;;;1.47;1.20;;;20.00;66.50;;;;;;5022902;28;20467;-78
2021/05/10 01:20:12;;;;;;;1.33;1.10;;;20.00;66.80;;;;;;5020488;28;20888;-78
2021/05/10 01:22:41;;;;;;;1.30;1.20;;;20.10;64.60;;;;;;5013607;28;20541;-78
2021/05/10 01:25:10;;;;;;;2.33;1.20;;;20.00;67.90;;;;;;5010296;28;20464;-75
2021/05/10 01:27:38;;;;;;;1.20;1.10;;;19.90;66.20;;;;;;5013590;28;20547;-76
2021/05/10 01:30:08;;;;;;;5.20;1.30;;;19.90;66.20;;;;;;5011682;28;20456;-79
2021/05/10 01:32:35;;;;;;;3.30;1.20;;;19.90;65.30;;;;;;5009455;28;20450;-79
2021/05/10 01:35:05;;;;;;;1.63;0.93;;;19.80;66.80;;;;;;5034445;28;20461;-76
2021/05/10 01:37:32;;;;;;;1.10;1.00;;;19.70;66.40;;;;;;5014033;28;20449;-80
2021/05/10 01:40:01;;;;;;;1.10;1.10;;;19.70;67.20;;;;;;5017216;28;21547;-77
2021/05/10 01:42:28;;;;;;;1.27;1.13;;;19.60;69.10;;;;;;5017727;28;20520;-78
2021/05/10 01:44:56;;;;;;;2.03;1.10;;;19.60;67.30;;;;;;5019286;28;20456;-78
2021/05/10 01:47:23;;;;;;;1.17;1.07;;;19.60;64.10;;;;;;5016841;28;20460;-77
2021/05/10 01:49:50;;;;;;;1.37;0.90;;;19.50;64.90;;;;;;5020911;28;20951;-79
2021/05/10 01:52:18;;;;;;;2.77;1.20;;;19.50;67.60;;;;;;5013095;28;20565;-76
2021/05/10 01:54:49;;;;;;;1.10;1.00;;;19.50;65.80;;;;;;5008550;28;20454;-76
2021/05/10 01:57:18;;;;;;;1.00;1.00;;;19.50;63.80;;;;;;5018981;28;20448;-79
2021/05/10 01:59:45;;;;;;;1.53;0.90;;;19.50;64.20;;;;;;5014651;28;20489;-79
2021/05/10 02:02:13;;;;;;;1.13;1.00;;;19.40;65.30;;;;;;5021485;28;20488;-78
2021/05/10 02:05:10;;;;;;;1.80;1.00;;;19.40;60.90;;;;;;5010944;28;20444;-79
2021/05/10 02:07:39;;;;;;;1.07;1.07;;;19.40;62.90;;;;;;5017183;28;21003;-76
2021/05/10 02:10:08;;;;;;;1.33;1.17;;;19.40;61.60;;;;;;5021453;28;20484;-79
2021/05/10 02:12:36;;;;;;;0.97;0.97;;;19.50;59.40;;;;;;5007137;28;20461;-78
2021/05/10 02:15:06;;;;;;;2.07;1.23;;;19.40;60.70;;;;;;5022782;28;20534;-81
2021/05/10 02:17:33;;;;;;;1.00;1.00;;;19.40;58.00;;;;;;5013689;28;20518;-79
2021/05/10 02:20:00;;;;;;;1.17;1.17;;;19.50;53.30;;;;;;5014742;28;20476;-78
2021/05/10 02:22:27;;;;;;;1.07;1.03;;;19.60;55.40;;;;;;5020517;28;20488;-77
2021/05/10 02:24:55;;;;;;;1.20;1.10;;;19.60;58.60;;;;;;5021198;28;20566;-79
2021/05/10 02:27:22;;;;;;;3.17;1.30;;;19.60;59.70;;;;;;5019109;28;20545;-77
2021/05/10 02:29:50;;;;;;;3.00;1.10;;;19.60;59.50;;;;;;5008786;28;20489;-79
2021/05/10 02:32:17;;;;;;;1.20;1.10;;;19.50;59.00;;;;;;5022036;28;20464;-78
2021/05/10 02:34:48;;;;;;;3.00;1.30;;;19.50;62.10;;;;;;5023111;28;20444;-78
2021/05/10 02:37:18;;;;;;;1.43;1.00;;;19.50;62.00;;;;;;5019045;28;21061;-78
2021/05/10 02:39:45;;;;;;;1.03;1.03;;;19.50;61.10;;;;;;5006723;28;20645;-76
2021/05/10 02:42:12;;;;;;;1.30;1.00;;;19.40;60.70;;;;;;5019353;28;20476;-80
2021/05/10 02:44:40;;;;;;;1.23;1.13;;;19.40;62.70;;;;;;5013785;28;20448;-80
2021/05/10 02:47:08;;;;;;;1.10;1.00;;;19.40;64.00;;;;;;5018758;28;20476;-79
2021/05/10 02:49:36;;;;;;;1.83;1.73;;;19.30;63.50;;;;;;5019236;28;21034;-78
2021/05/10 02:52:03;;;;;;;1.47;1.23;;;19.30;65.30;;;;;;5023737;28;20464;-78
2021/05/10 02:54:31;;;;;;;1.50;1.40;;;19.30;64.20;;;;;;5015044;28;21172;-79
2021/05/10 02:56:58;;;;;;;1.10;1.10;;;19.10;64.20;;;;;;5017598;28;20456;-78
2021/05/10 02:59:25;;;;;;;1.27;1.17;;;19.10;64.50;;;;;;5014658;28;21145;-79
2021/05/10 03:01:52;;;;;;;1.20;1.10;;;19.00;62.30;;;;;;5029747;28;21039;-78
2021/05/10 03:04:20;;;;;;;1.30;1.20;;;19.00;79.70;;;;;;5022049;28;20452;-78
2021/05/10 03:06:47;;;;;;;1.73;1.57;;;19.00;61.50;;;;;;5008424;28;20504;-78
2021/05/10 03:09:14;;;;;;;1.77;1.10;;;19.00;60.30;;;;;;5029680;28;20998;-76
2021/05/10 03:11:42;;;;;;;1.37;1.00;;;19.00;61.60;;;;;;5017092;28;20641;-81
2021/05/10 03:14:09;;;;;;;1.37;1.20;;;18.90;62.00;;;;;;5020198;28;21236;-78
2021/05/10 03:16:37;;;;;;;1.57;1.00;;;18.90;79.90;;;;;;5011324;28;20976;-78
2021/05/10 03:19:09;;;;;;;1.40;0.90;;;18.80;60.40;;;;;;5007314;28;20555;-77
2021/05/10 03:21:37;;;;;;;1.10;1.10;;;18.80;58.30;;;;;;5016999;28;20483;-77
2021/05/10 03:24:05;;;;;;;1.27;1.13;;;18.80;60.60;;;;;;5020239;28;20872;-76
2021/05/10 03:26:32;;;;;;;1.13;1.03;;;18.80;59.10;;;;;;5021059;28;20472;-77
2021/05/10 03:29:00;;;;;;;1.33;1.23;;;18.80;59.50;;;;;;5008945;28;20462;-77
2021/05/10 03:31:27;;;;;;;1.30;1.20;;;18.70;62.90;;;;;;5009994;28;21537;-79
2021/05/10 03:33:54;;;;;;;1.30;1.20;;;18.70;64.90;;;;;;5010267;28;20456;-79
2021/05/10 03:36:21;;;;;;;1.73;1.20;;;18.60;66.50;;;;;;5008897;28;20522;-76
2021/05/10 03:38:49;;;;;;;1.67;1.30;;;18.60;68.80;;;;;;5020884;28;20474;-79
2021/05/10 03:41:17;;;;;;;1.43;1.30;;;18.60;67.00;;;;;;5014272;28;20486;-78
2021/05/10 03:43:44;;;;;;;1.90;1.20;;;18.60;65.60;;;;;;5005929;28;20508;-77
2021/05/10 03:46:12;;;;;;;2.97;1.27;;;18.70;66.00;;;;;;5013283;28;20468;-78
2021/05/10 03:48:39;;;;;;;1.40;1.30;;;18.70;64.60;;;;;;5019826;28;20448;-80
2021/05/10 03:51:06;;;;;;;1.50;1.40;;;18.80;65.30;;;;;;5014538;28;20491;-78
2021/05/10 03:53:34;;;;;;;2.00;1.20;;;18.90;70.80;;;;;;4993913;28;20458;-76
2021/05/10 03:56:02;;;;;;;1.20;1.10;;;18.80;69.80;;;;;;5012390;28;20969;-77
2021/05/10 03:58:30;;;;;;;1.30;1.20;;;18.80;67.50;;;;;;5006682;28;20457;-80
2021/05/10 04:00:57;;;;;;;1.50;1.40;;;18.80;64.40;;;;;;5010603;28;20472;-78
2021/05/10 04:03:29;;;;;;;1.37;1.27;;;18.90;65.80;;;;;;5004633;28;20486;-75
2021/05/10 04:06:13;;;;;;;1.10;1.00;;;18.90;61.80;;;;;;5008474;28;20959;-77
2021/05/10 04:08:53;;;;;;;1.70;1.20;;;18.90;60.70;;;;;;5012863;28;20461;-77
2021/05/10 04:13:33;;;;;;;1.70;1.27;;;18.90;61.90;;;;;;5017987;28;20488;-81
2021/05/10 04:14:17;;;;;;;1.37;1.27;;;18.80;59.20;;;;;;5019717;28;20464;-77
2021/05/10 04:16:44;;;;;;;3.53;1.73;;;18.80;59.70;;;;;;5013170;28;20483;-76
2021/05/10 04:19:11;;;;;;;1.53;1.20;;;18.80;58.50;;;;;;5005579;28;20490;-81
2021/05/10 04:21:39;;;;;;;1.57;1.07;;;18.90;58.60;;;;;;5006437;28;20533;-77
2021/05/10 04:24:06;;;;;;;1.73;1.07;;;19.00;56.30;;;;;;5008674;28;20500;-77
2021/05/10 04:26:34;;;;;;;1.10;1.00;;;19.00;53.50;;;;;;5010831;28;20830;-80
2021/05/10 04:29:02;;;;;;;2.00;1.63;;;19.10;54.30;;;;;;5010543;28;20556;-78
2021/05/10 04:31:29;;;;;;;1.97;1.60;;;19.20;56.00;;;;;;5015114;28;20472;-79
2021/05/10 04:33:56;;;;;;;2.30;1.63;;;19.30;58.30;;;;;;5017461;28;20445;-80
2021/05/10 04:36:23;;;;;;;1.13;1.03;;;19.40;59.80;;;;;;5011451;28;20457;-78
2021/05/10 04:38:50;;;;;;;1.40;1.20;;;19.40;57.40;;;;;;5014602;28;20440;-77
2021/05/10 04:41:17;;;;;;;1.37;1.10;;;19.50;56.50;;;;;;5006080;28;20484;-77
2021/05/10 04:43:45;;;;;;;1.83;1.07;;;19.60;57.00;;;;;;5005221;28;20470;-76
2021/05/10 04:46:13;;;;;;;1.20;1.10;;;19.60;59.50;;;;;;5010573;28;20488;-78
2021/05/10 04:48:41;;;;;;;1.27;1.17;;;19.70;62.80;;;;;;5008992;28;20955;-78
2021/05/10 04:51:08;;;;;;;1.50;1.30;;;19.70;65.40;;;;;;5004022;28;21378;-77
2021/05/10 04:53:35;;;;;;;1.30;0.97;;;19.70;67.30;;;;;;5010535;28;20539;-79
2021/05/10 04:56:02;;;;;;;1.17;1.10;;;19.70;68.10;;;;;;5016304;28;20468;-78
2021/05/10 04:58:29;;;;;;;1.80;1.50;;;19.70;68.50;;;;;;5014409;28;20591;-78
2021/05/10 05:00:57;;;;;;;2.00;1.10;;;19.70;75.30;;;;;;5012321;28;20572;-79
2021/05/10 05:03:25;;;;;;;1.90;0.90;;;19.70;68.80;;;;;;5007812;28;20472;-76
2021/05/10 05:05:53;;;;;;;1.65;1.10;;;19.70;62.70;;;;;;5014693;28;20463;-77
2021/05/10 05:08:20;;;;;;;1.27;1.20;;;19.80;59.50;;;;;;5018994;28;20194;-78
2021/05/10 05:10:47;;;;;;;3.13;1.30;;;19.80;61.80;;;;;;5013923;28;20483;-79
2021/05/10 05:13:21;;;;;;;3.40;1.00;;;19.90;62.50;;;;;;5014077;28;20449;-76
2021/05/10 05:15:49;;;;;;;1.60;1.30;;;19.90;65.60;;;;;;5017763;28;20537;-76
2021/05/10 05:18:17;;;;;;;1.80;1.63;;;19.90;66.30;;;;;;5021182;28;20460;-75
2021/05/10 05:20:44;;;;;;;2.00;1.40;;;19.80;65.60;;;;;;5015591;28;20546;-78
2021/05/10 05:23:23;;;;;;;1.40;0.97;;;19.90;66.20;;;;;;5018288;28;21101;-77
2021/05/10 05:25:57;;;;;;;1.57;1.47;;;19.90;60.10;;;;;;5010834;28;20463;-78
2021/05/10 05:28:25;;;;;;;1.90;1.30;;;19.90;60.10;;;;;;5018290;28;20493;-81
2021/05/10 05:30:52;;;;;;;1.40;1.30;;;19.90;67.30;;;;;;5020630;28;20480;-80
2021/05/10 05:33:20;;;;;;;2.00;1.33;;;20.00;79.70;;;;;;5018607;28;20455;-79
2021/05/10 05:35:47;;;;;;;1.60;1.00;;;20.00;60.70;;;;;;5020211;28;20797;-76
2021/05/10 05:38:15;;;;;;;1.30;1.20;;;20.00;61.70;;;;;;5023080;28;21235;-77
2021/05/10 05:40:43;;;;;;;1.40;1.10;;;20.00;68.20;;;;;;5024282;28;20561;-78
2021/05/10 05:43:11;;;;;;;2.37;1.20;;;20.10;72.20;;;;;;5022827;28;20500;-78
2021/05/10 05:45:40;;;;;;;2.22;1.40;;;20.00;93.90;;;;;;5011205;28;21088;-80
2021/05/10 05:48:08;;;;;;;1.30;1.20;;;20.10;82.80;;;;;;5051043;28;20218;-80
2021/05/10 05:50:38;;;;;;;2.07;1.27;;;20.10;84.70;;;;;;5017534;28;20508;-80
2021/05/10 05:53:06;;;;;;;3.10;1.23;;;20.10;86.80;;;;;;5023649;28;20503;-76
2021/05/10 05:55:33;;;;;;;1.30;1.20;;;20.10;86.50;;;;;;5019641;28;20525;-78
2021/05/10 05:58:01;;;;;;;2.00;1.23;;;20.20;92.40;;;;;;5010314;28;20976;-79
2021/05/10 06:00:29;;;;;;;1.20;1.10;;;20.20;74.60;;;;;;5020211;28;20530;-76
2021/05/10 06:02:56;;;;;;;2.40;1.40;;;20.20;80.50;;;;;;5018021;28;20476;-76
2021/05/10 06:05:24;;;;;;;6.50;2.77;;;20.20;80.60;;;;;;5019465;28;20453;-77
2021/05/10 06:07:52;;;;;;;8.70;5.13;;;20.20;81.10;;;;;;5022695;28;20464;-75
2021/05/10 06:10:23;;;;;;;6.07;3.53;;;20.20;83.50;;;;;;5019344;28;20479;-76
2021/05/10 06:12:51;;;;;;;6.20;2.53;;;20.30;83.10;;;;;;5022295;28;20460;-78
2021/05/10 06:15:19;;;;;;;6.00;2.67;;;20.30;85.10;;;;;;5046337;28;20453;-76
2021/05/10 06:17:47;;;;;;;1.73;1.63;;;20.30;87.40;;;;;;5008404;28;20454;-76
2021/05/10 06:20:17;;;;;;;3.40;1.40;;;20.30;89.00;;;;;;5017106;28;20473;-76
2021/05/10 06:22:45;;;;;;;2.80;1.27;;;20.40;90.40;;;;;;5020649;28;20485;-76
2021/05/10 06:25:14;;;;;;;6.83;1.50;;;20.30;90.70;;;;;;5023055;28;20476;-77
2021/05/10 06:27:41;;;;;;;3.00;1.40;;;20.30;91.40;;;;;;5015714;28;20456;-76
2021/05/10 06:30:10;;;;;;;7.00;2.30;;;20.30;94.30;;;;;;5022611;28;20480;-75
2021/05/10 06:32:39;;;;;;;4.80;1.53;;;20.30;92.30;;;;;;5022089;28;20717;-76
2021/05/10 06:35:08;;;;;;;3.70;1.57;;;20.30;94.10;;;;;;5023066;28;20456;-78
2021/05/10 06:37:35;;;;;;;5.23;2.00;;;20.40;94.50;;;;;;5016593;28;20456;-74
2021/05/10 06:40:04;;;;;;;4.77;1.60;;;20.40;95.20;;;;;;5017324;28;20464;-76
2021/05/10 06:42:32;;;;;;;2.80;1.93;;;20.40;94.90;;;;;;5022001;28;20740;-78
2021/05/10 06:45:02;;;;;;;6.47;1.83;;;20.40;97.00;;;;;;5023578;28;20461;-79
2021/05/10 06:47:29;;;;;;;3.93;1.70;;;20.40;96.80;;;;;;5017596;28;20452;-78
2021/05/10 06:49:56;;;;;;;2.77;1.40;;;20.40;97.40;;;;;;5019636;28;20452;-76
2021/05/10 06:52:23;;;;;;;4.40;1.73;;;20.50;97.00;;;;;;5014505;28;20458;-77
2021/05/10 06:54:51;;;;;;;4.77;1.83;;;20.50;97.60;;;;;;5011482;28;20535;-78
2021/05/10 06:57:18;;;;;;;3.27;1.53;;;20.60;98.00;;;;;;5016434;28;20467;-79
2021/05/10 06:59:46;;;;;;;2.70;1.40;;;20.60;99.90;;;;;;5018930;28;20468;-77
2021/05/10 07:02:13;;;;;;;3.93;1.20;;;20.60;97.00;;;;;;5018847;28;20815;-77
2021/05/10 07:04:40;;;;;;;1.87;1.37;;;20.60;94.50;;;;;;5021973;28;20448;-78
2021/05/10 07:07:07;;;;;;;3.33;1.20;;;20.70;94.70;;;;;;5049622;28;20460;-77
2021/05/10 07:09:35;;;;;;;2.40;1.20;;;20.70;95.90;;;;;;5020682;28;20464;-78
2021/05/10 07:12:02;;;;;;;2.20;1.30;;;20.80;95.40;;;;;;5018032;28;20468;-77
2021/05/10 07:14:29;;;;;;;1.73;1.00;;;20.80;96.60;;;;;;5018642;28;20464;-78
2021/05/10 07:16:57;;;;;;;3.53;1.50;;;21.00;95.60;;;;;;5016382;28;20976;-78
2021/05/10 07:19:26;;;;;;;1.47;1.37;;;21.00;96.60;;;;;;5020049;28;20468;-77
2021/05/10 07:21:53;;;;;;;1.47;1.30;;;21.10;97.50;;;;;;5018637;28;20478;-78
2021/05/10 07:24:20;;;;;;;1.73;1.40;;;21.20;96.90;;;;;;5014987;28;20840;-78
2021/05/10 07:26:48;;;;;;;1.53;1.10;;;21.20;97.50;;;;;;5014552;28;21043;-78
2021/05/10 07:29:15;;;;;;;1.60;1.50;;;21.20;99.00;;;;;;5015443;28;20465;-80
2021/05/10 07:31:42;;;;;;;1.63;1.53;;;21.30;99.90;;;;;;5016156;28;21099;-77
2021/05/10 07:34:10;;;;;;;1.60;1.50;;;21.40;94.60;;;;;;5019446;28;20778;-77
2021/05/10 07:36:37;;;;;;;2.10;1.07;;;21.40;99.90;;;;;;5016029;28;20459;-77
2021/05/10 07:39:05;;;;;;;1.67;1.10;;;21.40;99.90;;;;;;5019270;28;20456;-76
2021/05/10 07:41:32;;;;;;;3.07;1.20;;;21.50;99.90;;;;;;5019317;28;20510;-78
2021/05/10 07:43:59;;;;;;;1.87;1.50;;;21.60;99.90;;;;;;5020804;28;20498;-77
2021/05/10 07:46:26;;;;;;;2.80;1.27;;;21.70;99.90;;;;;;5018617;28;20665;-76
2021/05/10 07:48:54;;;;;;;2.70;1.00;;;21.80;99.90;;;;;;5020667;28;20455;-76
2021/05/10 07:51:22;;;;;;;3.07;1.20;;;21.80;99.90;;;;;;5019505;28;21007;-77
2021/05/10 07:53:49;;;;;;;2.53;1.40;;;21.90;99.90;;;;;;5020084;28;20449;-76
2021/05/10 07:56:17;;;;;;;1.30;1.20;;;21.90;99.90;;;;;;5018517;28;20460;-78
2021/05/10 07:58:46;;;;;;;1.30;1.20;;;21.90;99.90;;;;;;5020563;28;20538;-77
2021/05/10 08:01:14;;;;;;;1.03;1.03;;;21.90;99.90;;;;;;5019784;28;20980;-78
2021/05/10 08:03:41;;;;;;;1.43;0.90;;;21.90;99.90;;;;;;5020287;28;20485;-78
2021/05/10 08:06:08;;;;;;;1.20;1.10;;;21.90;99.90;;;;;;5019064;28;20441;-76
2021/05/10 08:08:36;;;;;;;3.00;1.30;;;22.00;99.90;;;;;;5021193;28;21033;-77
2021/05/10 08:11:04;;;;;;;2.63;1.10;;;22.00;99.90;;;;;;5016904;28;20587;-77
2021/05/10 08:13:32;;;;;;;1.20;1.10;;;22.10;99.90;;;;;;5019859;28;20856;-78
2021/05/10 08:15:59;;;;;;;1.73;1.30;;;22.20;99.90;;;;;;5043133;28;20468;-77
2021/05/10 08:18:26;;;;;;;3.40;1.53;;;22.20;99.90;;;;;;5015445;28;20508;-77
2021/05/10 08:20:57;;;;;;;1.70;1.27;;;22.20;99.90;;;;;;5019103;28;20532;-78
2021/05/10 08:23:25;;;;;;;10.03;1.73;;;22.20;99.90;;;;;;5016801;28;20813;-77
2021/05/10 08:25:53;;;;;;;2.60;1.60;;;22.30;99.90;;;;;;5018327;28;20456;-77
2021/05/10 08:28:20;;;;;;;2.03;1.17;;;22.20;99.90;;;;;;5046724;28;20461;-76
2021/05/10 08:30:48;;;;;;;1.63;1.20;;;22.20;99.90;;;;;;5016265;28;21076;-76
2021/05/10 08:33:15;;;;;;;2.77;2.43;;;22.20;99.90;;;;;;5020621;28;20447;-78
2021/05/10 08:35:42;;;;;;;1.70;1.60;;;22.10;99.90;;;;;;5019001;28;20458;-77
2021/05/10 08:38:10;;;;;;;4.57;1.57;;;22.00;99.90;;;;;;5016528;28;20467;-78
2021/05/10 08:40:37;;;;;;;3.10;1.40;;;22.00;99.90;;;;;;5017670;28;20471;-77
2021/05/10 08:43:17;;;;;;;1.73;1.37;;;22.00;99.90;;;;;;5016222;28;21036;-77
2021/05/10 08:45:46;;;;;;;1.47;1.23;;;22.00;99.90;;;;;;5016134;28;20825;-78
2021/05/10 08:48:14;;;;;;;1.40;1.20;;;22.00;99.90;;;;;;5017891;28;20494;-77
2021/05/10 08:50:41;;;;;;;2.63;1.50;;;22.00;99.90;;;;;;5016891;28;20487;-77
2021/05/10 08:53:11;;;;;;;2.50;1.33;;;22.00;99.90;;;;;;5016791;28;20513;-77
2021/05/10 08:55:39;;;;;;;1.63;1.53;;;22.10;99.90;;;;;;5006728;28;20882;-78
2021/05/10 08:58:08;;;;;;;5.03;1.33;;;22.10;99.90;;;;;;5014229;28;20816;-78
2021/05/10 09:00:51;;;;;;;1.80;1.50;;;22.10;99.90;;;;;;5006795;28;20570;-75
2021/05/10 09:03:18;;;;;;;1.40;1.30;;;22.10;99.90;;;;;;5009087;28;21145;-75
2021/05/10 09:05:50;;;;;;;2.83;1.60;;;22.10;99.90;;;;;;5017053;28;20986;-77
2021/05/10 09:08:18;;;;;;;1.57;1.40;;;22.20;99.90;;;;;;5018395;28;20466;-78
2021/05/10 09:11:05;;;;;;;1.80;1.70;;;22.20;99.90;;;;;;5020274;28;20484;-79
2021/05/10 09:13:35;;;;;;;1.40;1.30;;;22.20;99.90;;;;;;5016032;28;20463;-77
2021/05/10 09:16:03;;;;;;;2.03;1.40;;;22.30;99.90;;;;;;5021998;28;20470;-78
2021/05/10 09:18:30;;;;;;;1.83;1.30;;;22.20;99.90;;;;;;5026289;28;20452;-79
2021/05/10 09:21:13;;;;;;;2.70;1.30;;;22.20;99.90;;;;;;5022699;28;20522;-78
2021/05/10 09:24:00;;;;;;;1.30;1.20;;;22.30;99.90;;;;;;5019947;28;20510;-76
2021/05/10 09:26:29;;;;;;;1.57;1.40;;;22.30;99.90;;;;;;5022425;28;20466;-79
2021/05/10 09:28:57;;;;;;;1.97;1.60;;;22.40;99.90;;;;;;5025729;28;20914;-78
2021/05/10 09:31:25;;;;;;;2.43;1.30;;;22.50;99.90;;;;;;5022051;28;20488;-76
2021/05/10 09:33:52;;;;;;;1.67;1.40;;;22.60;99.90;;;;;;5022979;28;20536;-78
2021/05/10 09:36:35;;;;;;;1.77;1.40;;;22.60;99.90;;;;;;5019606;28;20475;-78
2021/05/10 09:39:05;;;;;;;2.90;1.20;;;22.70;99.90;;;;;;5020064;28;20470;-77
2021/05/10 09:41:58;;;;;;;1.77;1.17;;;22.80;99.90;;;;;;5022281;28;20526;-77
2021/05/10 09:44:39;;;;;;;1.30;1.20;;;22.90;99.90;;;;;;5018319;28;20496;-78
2021/05/10 09:47:06;;;;;;;3.63;1.40;;;22.90;99.90;;;;;;5019132;28;20472;-77
2021/05/10 09:49:43;;;;;;;1.90;1.40;;;23.00;99.90;;;;;;5020280;28;20491;-77
2021/05/10 09:52:21;;;;;;;3.10;2.03;;;23.00;99.90;;;;;;5018011;28;21026;-79
2021/05/10 09:54:56;;;;;;;2.43;2.00;;;23.10;99.90;;;;;;5019679;28;20536;-77
2021/05/10 09:57:29;;;;;;;3.53;1.70;;;23.20;99.90;;;;;;5012749;28;21333;-76
2021/05/10 10:00:25;;;;;;;1.47;1.20;;;23.10;99.90;;;;;;5019113;28;20464;-77
2021/05/10 10:02:56;;;;;;;3.53;1.40;;;23.00;99.90;;;;;;4987441;28;20488;-76
2021/05/10 10:05:24;;;;;;;1.50;1.10;;;23.10;99.90;;;;;;5014729;28;20519;-78
2021/05/10 10:07:53;;;;;;;4.40;1.20;;;23.00;99.90;;;;;;5016952;28;20976;-77
2021/05/10 10:10:20;;;;;;;1.57;1.30;;;23.00;99.90;;;;;;5015906;28;20483;-77
2021/05/10 10:12:47;;;;;;;2.20;1.20;;;23.00;99.90;;;;;;5012914;28;20456;-78
2021/05/10 10:15:14;;;;;;;1.43;1.33;;;23.00;99.90;;;;;;5008355;28;20464;-78
2021/05/10 10:17:45;;;;;;;1.57;1.47;;;23.00;99.90;;;;;;5011866;28;20463;-78
2021/05/10 10:20:13;;;;;;;1.20;1.10;;;23.00;99.90;;;;;;5013495;28;20479;-78
2021/05/10 10:22:42;;;;;;;2.40;1.03;;;22.90;99.90;;;;;;5013367;28;20473;-78
2021/05/10 10:25:10;;;;;;;1.47;1.37;;;22.90;99.90;;;;;;5021251;28;20470;-79
2021/05/10 10:27:58;;;;;;;1.37;1.10;;;22.90;99.90;;;;;;5018960;28;20483;-77
2021/05/10 10:30:32;;;;;;;1.80;1.00;;;23.00;99.90;;;;;;5020718;28;20519;-78
2021/05/10 10:33:04;;;;;;;2.03;1.00;;;22.90;99.90;;;;;;5043326;28;20468;-79
2021/05/10 10:35:36;;;;;;;1.47;1.20;;;23.00;99.90;;;;;;5040693;28;20479;-77
2021/05/10 10:38:04;;;;;;;3.07;1.60;;;23.00;99.90;;;;;;5013411;28;20494;-78
2021/05/10 10:40:32;;;;;;;1.43;0.90;;;23.00;99.90;;;;;;5018493;28;20472;-79
2021/05/10 10:43:21;;;;;;;1.07;0.90;;;23.10;99.90;;;;;;5013538;28;20456;-80
2021/05/10 10:46:22;;;;;;;3.10;1.00;;;23.20;99.90;;;;;;5016180;28;20738;-79
2021/05/10 10:48:51;;;;;;;1.77;0.90;;;23.20;99.90;;;;;;5020812;28;20447;-79
2021/05/10 10:51:19;;;;;;;0.80;0.80;;;23.10;99.90;;;;;;5018485;28;20561;-78
2021/05/10 10:53:48;;;;;;;0.80;0.80;;;23.10;99.90;;;;;;5019629;28;20519;-76
2021/05/10 10:56:16;;;;;;;2.80;0.83;;;23.10;99.90;;;;;;5019414;28;20952;-78
2021/05/10 10:58:45;;;;;;;1.47;0.90;;;23.10;99.90;;;;;;5008063;28;20531;-77
2021/05/10 11:01:18;;;;;;;1.00;0.90;;;22.90;99.90;;;;;;5016969;28;20471;-77
2021/05/10 11:03:46;;;;;;;1.17;0.70;;;23.00;99.90;;;;;;5019101;28;20484;-77
2021/05/10 11:06:15;;;;;;;2.13;1.17;;;22.80;99.90;;;;;;5013462;28;20468;-77
2021/05/10 11:08:50;;;;;;;2.30;0.90;;;22.80;99.90;;;;;;5018917;28;20460;-77
2021/05/10 11:11:40;;;;;;;0.77;0.70;;;22.70;99.90;;;;;;5019648;28;20464;-77
2021/05/10 11:14:36;;;;;;;4.13;1.60;;;22.70;99.90;;;;;;5010090;28;20465;-77
2021/05/10 11:17:04;;;;;;;2.57;1.07;;;22.70;99.90;;;;;;5011181;28;20460;-78
2021/05/10 11:19:34;;;;;;;2.00;1.00;;;22.60;99.90;;;;;;5016678;28;20469;-77
2021/05/10 11:22:23;;;;;;;2.30;1.00;;;22.60;99.90;;;;;;5016358;28;20517;-77
2021/05/10 11:24:53;;;;;;;1.47;1.00;;;22.60;99.90;;;;;;5015832;28;20486;-77
2021/05/10 11:27:24;;;;;;;2.10;0.90;;;22.50;99.90;;;;;;5018182;28;20937;-75
2021/05/10 11:29:52;;;;;;;0.87;0.83;;;22.50;99.90;;;;;;5007092;28;21281;-76
2021/05/10 11:32:32;;;;;;;1.13;0.93;;;22.40;99.90;;;;;;5028661;28;21454;-76
2021/05/10 11:35:27;;;;;;;1.20;1.10;;;22.40;99.90;;;;;;5015912;28;21220;-75
2021/05/10 11:38:07;;;;;;;1.57;1.43;;;22.20;99.90;;;;;;5018948;28;20459;-76
2021/05/10 11:40:36;;;;;;;1.40;0.90;;;22.30;99.90;;;;;;5007632;28;20474;-79
2021/05/10 11:43:18;;;;;;;4.90;1.30;;;22.20;99.90;;;;;;5005808;28;20460;-78
2021/05/10 11:45:46;;;;;;;2.97;0.90;;;22.20;99.90;;;;;;5023965;28;20483;-79
2021/05/10 11:48:14;;;;;;;1.20;0.67;;;22.20;99.90;;;;;;5021428;28;20459;-72
2021/05/10 11:50:48;;;;;;;0.83;0.80;;;22.20;99.90;;;;;;5015086;28;20499;-78
2021/05/10 11:53:28;;;;;;;3.40;1.00;;;22.10;99.90;;;;;;5016163;28;20466;-78
2021/05/10 11:56:02;;;;;;;0.80;0.70;;;22.20;99.90;;;;;;5026286;28;20970;-78
2021/05/10 11:58:50;;;;;;;1.10;0.80;;;22.10;99.90;;;;;;5018376;28;20455;-78
2021/05/10 12:01:32;;;;;;;0.90;0.90;;;22.10;99.90;;;;;;5017336;28;20482;-77
2021/05/10 12:03:59;;;;;;;0.70;0.70;;;22.10;99.90;;;;;;5043876;28;20499;-79
2021/05/10 12:06:31;;;;;;;1.70;0.70;;;22.10;99.90;;;;;;5017608;28;20455;-78
2021/05/10 12:08:59;;;;;;;1.50;0.93;;;22.00;99.90;;;;;;5013606;28;21128;-77
2021/05/10 12:11:27;;;;;;;1.10;0.90;;;22.00;99.90;;;;;;5016474;28;21105;-78
2021/05/10 12:13:54;;;;;;;2.03;1.00;;;22.00;99.90;;;;;;5019505;28;20966;-77
2021/05/10 12:16:22;;;;;;;0.70;0.70;;;22.00;99.90;;;;;;5013588;28;20448;-78
2021/05/10 12:18:56;;;;;;;1.20;0.80;;;21.90;99.90;;;;;;5016394;28;20488;-76
2021/05/10 12:21:23;;;;;;;0.83;0.80;;;21.90;99.90;;;;;;5015793;28;20475;-76
2021/05/10 12:23:50;;;;;;;3.03;0.80;;;21.90;99.90;;;;;;5018535;28;20572;-77
2021/05/10 12:26:19;;;;;;;0.97;0.70;;;21.90;99.90;;;;;;5016256;28;20467;-78
2021/05/10 12:28:46;;;;;;;0.80;0.80;;;21.90;99.90;;;;;;5013307;28;21009;-77
2021/05/10 12:31:13;;;;;;;1.00;0.80;;;21.80;99.90;;;;;;5013540;28;20507;-78
2021/05/10 12:33:45;;;;;;;0.97;0.80;;;21.80;99.90;;;;;;5012212;28;20485;-78
2021/05/10 12:36:13;;;;;;;0.80;0.80;;;21.80;99.90;;;;;;5017170;28;20466;-79
2021/05/10 12:38:42;;;;;;;0.67;0.67;;;21.80;99.90;;;;;;5015334;28;21045;-78
2021/05/10 12:41:20;;;;;;;1.03;0.70;;;21.80;99.90;;;;;;5020368;28;20490;-78
2021/05/10 12:43:49;;;;;;;1.87;0.70;;;21.80;99.90;;;;;;5018241;28;21386;-78
2021/05/10 12:46:23;;;;;;;0.90;0.70;;;21.80;99.90;;;;;;5034107;28;20523;-79
2021/05/10 12:48:50;;;;;;;2.37;0.70;;;21.80;99.90;;;;;;5017221;28;21025;-78
2021/05/10 12:51:21;;;;;;;1.63;0.73;;;21.80;99.90;;;;;;5023194;28;21097;-78
2021/05/10 12:53:52;;;;;;;1.63;0.80;;;21.80;99.90;;;;;;5024117;28;20489;-79
2021/05/10 12:56:22;;;;;;;1.67;0.70;;;21.80;99.90;;;;;;5023620;28;20464;-79
2021/05/10 12:58:50;;;;;;;0.80;0.80;;;21.80;99.90;;;;;;5022630;28;20455;-78
2021/05/10 13:01:19;;;;;;;2.50;0.80;;;21.70;99.90;;;;;;5023727;28;21033;-78